Time;durP1;ratioP1;P1;durP2;ratioP2;P2;SDS_P1;SDS_P2;PMS_P1;PMS_P2;Temp;Humidity;BMP_temperature;BMP_pressure;BME280_temperature;BME280_humidity;BME280_pressure;Samples;Min_cycle;Max_cycle;Signal;HPM_P1;HPM_P2
2023/09/27 00:01:53;;;;;;;11.40;9.70;;;13.60;99.90;;;;;;5057256;28;20447;-80
2023/09/27 00:04:20;;;;;;;12.77;9.37;;;13.40;99.90;;;;;;5061206;28;20472;-80
2023/09/27 00:06:47;;;;;;;11.47;10.10;;;13.40;99.90;;;;;;5067400;28;20443;-80
2023/09/27 00:09:14;;;;;;;10.70;9.30;;;13.40;99.90;;;;;;5066748;28;20535;-80
2023/09/27 00:11:41;;;;;;;16.33;10.23;;;13.40;99.90;;;;;;5066245;28;20442;-80
2023/09/27 00:14:08;;;;;;;11.13;9.20;;;13.50;99.90;;;;;;5064817;28;20959;-80
2023/09/27 00:16:35;;;;;;;12.30;9.27;;;13.60;99.90;;;;;;5066648;28;20500;-80
2023/09/27 00:19:05;;;;;;;9.83;8.80;;;13.50;99.90;;;;;;5065028;28;20462;-79
2023/09/27 00:21:32;;;;;;;12.80;9.50;;;13.50;99.90;;;;;;5064326;28;20473;-79
2023/09/27 00:23:59;;;;;;;10.07;9.00;;;13.50;99.90;;;;;;5062179;28;20515;-79
2023/09/27 00:26:26;;;;;;;10.13;9.13;;;13.50;99.90;;;;;;5065265;28;20964;-79
2023/09/27 00:28:53;;;;;;;8.50;7.67;;;13.40;99.90;;;;;;5056362;28;20925;-80
2023/09/27 00:31:20;;;;;;;11.33;8.07;;;13.40;99.90;;;;;;5059965;28;20528;-79
2023/09/27 00:33:47;;;;;;;16.90;8.20;;;13.40;99.90;;;;;;5066813;28;20504;-80
2023/09/27 00:36:16;;;;;;;12.63;10.50;;;13.30;99.90;;;;;;5065328;28;20520;-79
2023/09/27 00:38:42;;;;;;;9.20;8.30;;;13.40;99.90;;;;;;5058282;28;20527;-79
2023/09/27 00:41:10;;;;;;;11.07;8.40;;;13.40;99.90;;;;;;5067529;28;20545;-79
2023/09/27 00:43:37;;;;;;;10.73;8.23;;;13.30;99.90;;;;;;5067721;28;20523;-80
2023/09/27 00:46:06;;;;;;;11.20;8.70;;;13.40;99.90;;;;;;5068612;28;20543;-80
2023/09/27 00:48:35;;;;;;;12.07;9.50;;;13.40;99.90;;;;;;5065564;28;20537;-80
2023/09/27 00:51:03;;;;;;;11.43;9.93;;;13.40;99.90;;;;;;5065325;28;20478;-80
2023/09/27 00:53:34;;;;;;;10.97;9.27;;;13.40;99.90;;;;;;5060289;28;20469;-80
2023/09/27 00:56:01;;;;;;;11.40;9.20;;;13.40;99.90;;;;;;5053464;28;20446;-80
2023/09/27 00:58:31;;;;;;;14.20;10.43;;;13.50;99.90;;;;;;5059502;28;20465;-80
2023/09/27 01:00:59;;;;;;;12.50;9.63;;;13.60;99.90;;;;;;5062153;28;20542;-80
2023/09/27 01:03:26;;;;;;;12.07;8.83;;;13.60;99.90;;;;;;5063302;28;20472;-80
2023/09/27 01:05:54;;;;;;;12.20;9.53;;;13.60;99.90;;;;;;5056542;28;20600;-79
2023/09/27 01:08:21;;;;;;;13.87;8.93;;;13.50;99.90;;;;;;5061780;28;20490;-79
2023/09/27 01:10:49;;;;;;;9.10;8.17;;;13.50;99.90;;;;;;5064093;28;20477;-79
2023/09/27 01:13:16;;;;;;;11.77;10.67;;;13.40;99.90;;;;;;5067984;28;20566;-79
2023/09/27 01:15:43;;;;;;;9.60;8.03;;;13.30;99.90;;;;;;5063589;28;20469;-80
2023/09/27 01:18:10;;;;;;;9.63;8.67;;;13.10;99.90;;;;;;5068656;28;20452;-80
2023/09/27 01:20:37;;;;;;;12.10;9.43;;;13.10;99.90;;;;;;5057601;28;20461;-79
2023/09/27 01:23:06;;;;;;;8.77;7.47;;;13.10;99.90;;;;;;5059756;28;20514;-79
2023/09/27 01:25:35;;;;;;;10.30;8.80;;;12.90;99.90;;;;;;5060783;28;20460;-79
2023/09/27 01:28:04;;;;;;;9.07;8.17;;;12.90;99.90;;;;;;5061893;28;20445;-79
2023/09/27 01:30:33;;;;;;;10.20;8.90;;;12.90;99.90;;;;;;5062403;28;20460;-79
2023/09/27 01:33:02;;;;;;;9.17;8.30;;;12.90;99.90;;;;;;5059661;28;20497;-79
2023/09/27 01:35:29;;;;;;;13.23;7.57;;;12.80;99.90;;;;;;5065034;28;21028;-79
2023/09/27 01:37:56;;;;;;;8.87;7.97;;;12.70;99.90;;;;;;5064632;28;20536;-79
2023/09/27 01:40:30;;;;;;;9.23;8.33;;;12.70;99.90;;;;;;5056925;28;20464;-79
2023/09/27 01:42:57;;;;;;;11.80;8.47;;;12.60;99.90;;;;;;5067374;28;20495;-79
2023/09/27 01:45:24;;;;;;;10.53;7.57;;;12.70;99.90;;;;;;5060696;28;20516;-78
2023/09/27 01:47:52;;;;;;;8.73;7.57;;;12.80;99.90;;;;;;5059852;28;21059;-78
2023/09/27 01:50:19;;;;;;;9.43;8.43;;;12.90;99.90;;;;;;5056090;28;20571;-78
2023/09/27 01:52:47;;;;;;;8.80;7.73;;;12.90;99.90;;;;;;5057398;28;20812;-78
2023/09/27 01:55:14;;;;;;;8.80;7.90;;;12.90;99.90;;;;;;5054501;28;21000;-78
2023/09/27 01:57:45;;;;;;;9.90;8.27;;;12.70;99.90;;;;;;5065431;28;20448;-78
2023/09/27 02:00:14;;;;;;;7.03;6.47;;;12.60;99.90;;;;;;5060590;28;20547;-78
2023/09/27 02:02:41;;;;;;;8.17;7.17;;;12.80;99.90;;;;;;5059689;28;20450;-78
2023/09/27 02:05:09;;;;;;;8.20;7.50;;;12.80;99.90;;;;;;5055653;28;20496;-78
2023/09/27 02:07:38;;;;;;;10.80;8.20;;;12.80;99.90;;;;;;5062208;28;20440;-78
2023/09/27 02:10:05;;;;;;;9.37;8.07;;;12.80;99.90;;;;;;5062152;28;20489;-78
2023/09/27 02:12:32;;;;;;;8.70;7.40;;;12.70;99.90;;;;;;5063868;28;20521;-78
2023/09/27 02:15:01;;;;;;;9.10;8.13;;;12.60;99.90;;;;;;5067449;28;20510;-78
2023/09/27 02:17:28;;;;;;;6.90;6.20;;;12.60;99.90;;;;;;5065146;28;20854;-78
2023/09/27 02:19:56;;;;;;;8.63;7.73;;;12.70;99.90;;;;;;5059353;28;21909;-79
2023/09/27 02:22:23;;;;;;;7.23;6.53;;;12.60;99.90;;;;;;5062868;28;21031;-78
2023/09/27 02:24:50;;;;;;;9.73;8.20;;;12.50;99.90;;;;;;5059739;28;21253;-78
2023/09/27 02:27:17;;;;;;;7.37;6.50;;;12.40;99.90;;;;;;5056591;28;20489;-78
2023/09/27 02:29:45;;;;;;;7.67;6.90;;;12.40;99.90;;;;;;5061964;28;20489;-78
2023/09/27 02:32:13;;;;;;;9.80;8.63;;;12.40;99.90;;;;;;5057940;28;20463;-78
2023/09/27 02:34:42;;;;;;;7.83;5.87;;;12.30;99.90;;;;;;5061664;28;20449;-78
2023/09/27 02:37:09;;;;;;;9.80;8.80;;;12.30;99.90;;;;;;5062860;28;20487;-78
2023/09/27 02:39:36;;;;;;;7.97;7.10;;;12.20;99.90;;;;;;5063830;28;20448;-78
2023/09/27 02:42:03;;;;;;;11.53;9.33;;;12.20;99.90;;;;;;5064743;28;20504;-78
2023/09/27 02:44:31;;;;;;;8.03;6.67;;;12.20;99.90;;;;;;5060591;28;20559;-78
2023/09/27 02:46:58;;;;;;;8.40;7.10;;;12.20;99.90;;;;;;5060636;28;20866;-78
2023/09/27 02:49:26;;;;;;;7.77;7.07;;;12.20;99.90;;;;;;5063929;28;20491;-78
2023/09/27 02:51:53;;;;;;;7.70;6.90;;;12.20;99.90;;;;;;5056827;28;21293;-78
2023/09/27 02:54:20;;;;;;;10.73;7.60;;;12.10;99.90;;;;;;5064068;28;20451;-78
2023/09/27 02:56:47;;;;;;;8.00;7.30;;;12.10;99.90;;;;;;5058854;28;20539;-78
2023/09/27 02:59:14;;;;;;;7.17;5.67;;;12.20;99.90;;;;;;5062181;28;20638;-78
2023/09/27 03:01:42;;;;;;;11.10;7.40;;;12.20;99.90;;;;;;5058318;28;20439;-78
2023/09/27 03:04:10;;;;;;;13.03;7.67;;;12.10;99.90;;;;;;5059170;28;20465;-78
2023/09/27 03:06:39;;;;;;;9.93;7.33;;;12.20;99.90;;;;;;5061849;28;20469;-78
2023/09/27 03:09:08;;;;;;;7.33;6.63;;;12.10;99.90;;;;;;5062591;28;21069;-78
2023/09/27 03:11:36;;;;;;;8.53;7.40;;;12.10;99.90;;;;;;5055999;28;20455;-78
2023/09/27 03:14:03;;;;;;;7.00;6.13;;;12.10;99.90;;;;;;5062971;28;20957;-78
2023/09/27 03:16:30;;;;;;;8.40;7.60;;;12.20;99.90;;;;;;5065048;28;20467;-78
2023/09/27 03:18:58;;;;;;;9.60;7.70;;;12.10;99.90;;;;;;5065433;28;20460;-78
2023/09/27 03:21:26;;;;;;;8.73;5.80;;;12.30;99.90;;;;;;5061727;28;20469;-78
2023/09/27 03:23:55;;;;;;;7.33;6.63;;;12.20;99.90;;;;;;5066145;28;20448;-78
2023/09/27 03:26:22;;;;;;;5.90;5.40;;;12.10;99.90;;;;;;5053768;28;20472;-78
2023/09/27 03:28:50;;;;;;;9.23;7.00;;;12.10;99.90;;;;;;5058231;28;20530;-78
2023/09/27 03:31:17;;;;;;;7.33;6.50;;;12.00;99.90;;;;;;5058168;28;20981;-78
2023/09/27 03:33:43;;;;;;;8.80;7.90;;;12.10;99.90;;;;;;5056530;28;20468;-78
2023/09/27 03:36:11;;;;;;;8.03;7.20;;;12.10;99.90;;;;;;5055927;28;20520;-78
2023/09/27 03:38:38;;;;;;;7.87;6.67;;;12.10;99.90;;;;;;5065628;28;20524;-78
2023/09/27 03:41:09;;;;;;;21.10;8.53;;;12.10;99.90;;;;;;5057340;28;20455;-78
2023/09/27 03:43:36;;;;;;;9.53;6.07;;;12.10;99.90;;;;;;5054169;28;20858;-78
2023/09/27 03:46:04;;;;;;;8.17;6.80;;;12.10;99.90;;;;;;5052631;28;20530;-78
2023/09/27 03:48:31;;;;;;;9.03;7.80;;;12.10;99.90;;;;;;5060388;28;20444;-78
2023/09/27 03:50:58;;;;;;;6.47;5.73;;;12.10;99.90;;;;;;5060600;28;21209;-78
2023/09/27 03:53:25;;;;;;;6.53;5.97;;;12.00;99.90;;;;;;5060936;28;20994;-78
2023/09/27 03:55:52;;;;;;;7.73;6.90;;;11.90;99.90;;;;;;5065498;28;20958;-79
2023/09/27 03:58:21;;;;;;;15.67;8.87;;;12.00;99.90;;;;;;5059981;28;20486;-81
2023/09/27 04:00:49;;;;;;;9.30;8.30;;;12.00;99.90;;;;;;5064480;28;20446;-80
2023/09/27 04:03:23;;;;;;;11.27;7.87;;;12.00;99.90;;;;;;5066808;28;20465;-80
2023/09/27 04:05:50;;;;;;;8.67;7.30;;;12.00;99.90;;;;;;5058513;28;20478;-80
2023/09/27 04:08:18;;;;;;;9.43;7.17;;;12.00;99.90;;;;;;5066174;28;20474;-81
2023/09/27 04:10:45;;;;;;;11.90;8.10;;;12.00;99.90;;;;;;5062525;28;20481;-81
2023/09/27 04:13:12;;;;;;;10.93;7.60;;;12.00;99.90;;;;;;5065707;28;20999;-80
2023/09/27 04:15:40;;;;;;;9.07;7.03;;;11.90;99.90;;;;;;5068297;28;20532;-80
2023/09/27 04:18:07;;;;;;;6.87;6.17;;;11.90;99.90;;;;;;5067529;28;20455;-80
2023/09/27 04:20:34;;;;;;;13.17;7.10;;;11.80;99.90;;;;;;5059139;28;20491;-80
2023/09/27 04:23:03;;;;;;;8.03;7.23;;;11.80;99.90;;;;;;5064204;28;20570;-80
2023/09/27 04:25:30;;;;;;;7.93;6.07;;;11.80;99.90;;;;;;5061473;28;20469;-80
2023/09/27 04:27:57;;;;;;;7.20;6.50;;;11.70;99.90;;;;;;5063216;28;20446;-80
2023/09/27 04:30:24;;;;;;;8.57;7.40;;;11.70;99.90;;;;;;5063349;28;21204;-80
2023/09/27 04:32:53;;;;;;;7.23;6.40;;;11.60;99.90;;;;;;5066199;28;20519;-80
2023/09/27 04:35:21;;;;;;;11.70;7.40;;;11.60;99.90;;;;;;5063379;28;20493;-80
2023/09/27 04:37:48;;;;;;;7.50;6.80;;;11.60;99.90;;;;;;5067109;28;20446;-80
2023/09/27 04:40:15;;;;;;;10.53;6.70;;;11.50;99.90;;;;;;5062194;28;20467;-80
2023/09/27 04:42:43;;;;;;;7.63;6.93;;;11.60;99.90;;;;;;5059509;28;20949;-80
2023/09/27 04:45:11;;;;;;;6.70;6.10;;;11.50;99.90;;;;;;5066972;28;20471;-80
2023/09/27 04:47:38;;;;;;;9.00;7.60;;;11.40;99.90;;;;;;5063602;28;21015;-80
2023/09/27 04:50:09;;;;;;;7.40;6.10;;;11.40;99.90;;;;;;5062717;28;21035;-79
2023/09/27 04:52:36;;;;;;;9.27;5.20;;;11.30;99.90;;;;;;5057518;28;21085;-80
2023/09/27 04:55:05;;;;;;;7.83;7.03;;;11.30;99.90;;;;;;5063494;28;20936;-80
2023/09/27 04:57:32;;;;;;;8.20;6.90;;;11.30;99.90;;;;;;5057494;28;20474;-80
2023/09/27 04:59:59;;;;;;;10.03;7.27;;;11.40;99.90;;;;;;5054557;28;20470;-79
2023/09/27 05:02:27;;;;;;;9.47;7.90;;;11.60;99.90;;;;;;5061080;28;21063;-80
2023/09/27 05:04:54;;;;;;;8.97;6.47;;;11.70;99.90;;;;;;5063982;28;20544;-81
2023/09/27 05:07:22;;;;;;;8.40;6.10;;;11.80;99.90;;;;;;5061541;28;20443;-80
2023/09/27 05:09:50;;;;;;;8.17;6.97;;;11.90;99.90;;;;;;5057929;28;20499;-80
2023/09/27 05:12:17;;;;;;;9.00;7.37;;;11.90;99.90;;;;;;5056909;28;20945;-80
2023/09/27 05:14:44;;;;;;;8.93;7.90;;;11.90;99.90;;;;;;5065731;28;20511;-80
2023/09/27 05:17:11;;;;;;;8.90;8.07;;;12.00;99.90;;;;;;5063622;28;20454;-80
2023/09/27 05:19:37;;;;;;;7.17;6.47;;;12.00;99.90;;;;;;5067505;28;20462;-79
2023/09/27 05:22:04;;;;;;;7.63;6.83;;;12.00;99.90;;;;;;5064548;28;20889;-80
2023/09/27 05:24:38;;;;;;;7.80;6.97;;;12.00;99.90;;;;;;5063511;28;21039;-79
2023/09/27 05:27:06;;;;;;;9.00;8.20;;;12.10;99.90;;;;;;5067505;28;20456;-80
2023/09/27 05:29:33;;;;;;;12.10;10.17;;;12.20;99.90;;;;;;5067617;28;20495;-78
2023/09/27 05:32:00;;;;;;;12.30;8.33;;;12.20;99.90;;;;;;5066605;28;20940;-79
2023/09/27 05:34:28;;;;;;;8.80;7.60;;;12.30;99.90;;;;;;5062734;28;20531;-78
2023/09/27 05:36:55;;;;;;;9.00;8.10;;;12.40;99.90;;;;;;5056140;28;20471;-77
2023/09/27 05:39:22;;;;;;;9.47;8.03;;;12.40;99.90;;;;;;5057422;28;20525;-78
2023/09/27 05:41:51;;;;;;;12.40;8.23;;;12.40;99.90;;;;;;5061278;28;20524;-77
2023/09/27 05:44:18;;;;;;;9.67;8.53;;;12.30;99.90;;;;;;5055227;28;20523;-78
2023/09/27 05:46:45;;;;;;;9.37;8.33;;;12.40;99.90;;;;;;5056595;28;20521;-77
2023/09/27 05:49:14;;;;;;;10.57;8.80;;;12.50;99.90;;;;;;5064934;28;20503;-78
2023/09/27 05:51:41;;;;;;;8.27;7.37;;;12.50;99.90;;;;;;5062939;28;20505;-77
2023/09/27 05:54:08;;;;;;;10.50;9.10;;;12.50;99.90;;;;;;5064531;28;20930;-78
2023/09/27 05:56:37;;;;;;;13.00;11.17;;;12.70;99.90;;;;;;5057964;28;21013;-76
2023/09/27 05:59:08;;;;;;;16.43;11.43;;;12.90;99.90;;;;;;5066973;28;20475;-76
2023/09/27 06:01:35;;;;;;;14.60;13.20;;;12.90;99.90;;;;;;5062035;28;20455;-77
2023/09/27 06:04:03;;;;;;;12.37;11.23;;;12.90;99.90;;;;;;5058046;28;20497;-76
2023/09/27 06:06:30;;;;;;;15.63;11.97;;;12.90;99.90;;;;;;5061573;28;20454;-77
2023/09/27 06:08:58;;;;;;;11.77;9.70;;;13.00;99.90;;;;;;5060416;28;20569;-79
2023/09/27 06:11:25;;;;;;;12.37;10.50;;;13.00;99.90;;;;;;5061545;28;20486;-77
2023/09/27 06:13:52;;;;;;;8.67;7.77;;;13.10;99.90;;;;;;5060038;28;20988;-76
2023/09/27 06:16:21;;;;;;;10.23;8.90;;;13.10;99.90;;;;;;5066228;28;20451;-75
2023/09/27 06:18:48;;;;;;;9.80;8.80;;;13.20;99.90;;;;;;5057775;28;20442;-76
2023/09/27 06:21:15;;;;;;;12.37;9.57;;;13.50;99.90;;;;;;5064500;28;20834;-80
2023/09/27 06:23:42;;;;;;;11.47;8.37;;;13.50;99.90;;;;;;5064050;28;21177;-77
2023/09/27 06:26:09;;;;;;;10.07;7.90;;;13.50;99.90;;;;;;5064370;28;20441;-79
2023/09/27 06:28:38;;;;;;;9.90;7.77;;;13.50;99.90;;;;;;5065688;28;20509;-77
2023/09/27 06:31:07;;;;;;;10.47;9.27;;;13.60;99.90;;;;;;5056843;28;20490;-76
2023/09/27 06:33:38;;;;;;;10.90;8.80;;;13.60;99.90;;;;;;5064121;28;20527;-76
2023/09/27 06:36:06;;;;;;;10.40;6.63;;;13.70;99.90;;;;;;5066677;28;20509;-77
2023/09/27 06:38:33;;;;;;;8.57;7.77;;;13.80;99.90;;;;;;5062995;28;21030;-79
2023/09/27 06:41:01;;;;;;;8.60;7.73;;;13.90;99.90;;;;;;5063660;28;20481;-77
2023/09/27 06:43:29;;;;;;;11.10;8.00;;;14.00;99.90;;;;;;5059486;28;20467;-76
2023/09/27 06:45:57;;;;;;;8.70;7.90;;;14.20;99.90;;;;;;5066566;28;20479;-76
2023/09/27 06:48:24;;;;;;;9.77;7.97;;;14.30;99.90;;;;;;5060056;28;21247;-77
2023/09/27 06:50:52;;;;;;;11.97;8.10;;;14.50;99.90;;;;;;5062382;28;20545;-77
2023/09/27 06:53:20;;;;;;;8.10;7.30;;;14.70;99.90;;;;;;5064202;28;20513;-77
2023/09/27 06:55:49;;;;;;;10.23;7.70;;;14.50;99.90;;;;;;5059715;28;20459;-76
2023/09/27 06:58:22;;;;;;;9.53;6.40;;;14.60;99.90;;;;;;5056858;28;20450;-76
2023/09/27 07:00:51;;;;;;;7.53;6.77;;;14.60;99.90;;;;;;5061606;28;20503;-77
2023/09/27 07:03:19;;;;;;;8.20;7.40;;;14.70;99.90;;;;;;5057373;28;20459;-76
2023/09/27 07:05:47;;;;;;;6.40;5.47;;;14.90;99.90;;;;;;5054333;28;20489;-75
2023/09/27 07:08:16;;;;;;;7.80;7.10;;;15.00;99.90;;;;;;5057319;28;20498;-77
2023/09/27 07:10:44;;;;;;;7.37;6.67;;;15.10;99.90;;;;;;5058099;28;20567;-79
2023/09/27 07:13:11;;;;;;;10.63;7.10;;;15.20;99.90;;;;;;5062218;28;20455;-77
2023/09/27 07:15:38;;;;;;;13.40;7.30;;;15.40;99.90;;;;;;5065527;28;20439;-77
2023/09/27 07:18:05;;;;;;;9.97;6.50;;;15.40;99.90;;;;;;5064861;28;20451;-77
2023/09/27 07:20:34;;;;;;;15.10;6.80;;;15.70;99.90;;;;;;5066556;28;21034;-76
2023/09/27 07:23:04;;;;;;;9.17;7.47;;;15.70;99.90;;;;;;5062000;28;20463;-77
2023/09/27 07:25:37;;;;;;;7.63;6.03;;;15.90;99.90;;;;;;5065970;28;20492;-77
2023/09/27 07:28:05;;;;;;;10.10;6.23;;;16.10;99.90;;;;;;5059130;28;20541;-76
2023/09/27 07:30:34;;;;;;;8.63;7.47;;;16.30;99.90;;;;;;5064435;28;21001;-77
2023/09/27 07:33:04;;;;;;;10.60;7.60;;;16.30;99.90;;;;;;5066856;28;20926;-77
2023/09/27 07:35:33;;;;;;;9.73;8.80;;;16.20;99.90;;;;;;5065476;28;20546;-77
2023/09/27 07:38:00;;;;;;;7.67;6.80;;;16.40;99.90;;;;;;5070467;28;20563;-77
2023/09/27 07:40:29;;;;;;;9.53;7.07;;;16.80;99.90;;;;;;5070581;28;20800;-79
2023/09/27 07:42:58;;;;;;;7.57;6.70;;;17.10;99.90;;;;;;5066282;28;21007;-77
2023/09/27 07:45:30;;;;;;;7.87;7.13;;;17.10;99.90;;;;;;5069628;28;20452;-77
2023/09/27 07:47:57;;;;;;;10.23;7.77;;;17.30;99.90;;;;;;5069671;28;20459;-78
2023/09/27 07:50:27;;;;;;;10.27;8.10;;;17.20;99.90;;;;;;5069960;28;20480;-79
2023/09/27 07:52:55;;;;;;;7.90;7.20;;;17.40;99.90;;;;;;5069563;28;21022;-79
2023/09/27 07:55:22;;;;;;;11.57;10.33;;;17.20;99.90;;;;;;5070119;28;20448;-77
2023/09/27 07:57:49;;;;;;;10.37;9.37;;;17.30;99.90;;;;;;5065521;28;20532;-77
2023/09/27 08:00:18;;;;;;;11.17;9.97;;;17.20;99.90;;;;;;5069945;28;20443;-79
2023/09/27 08:02:46;;;;;;;13.90;11.20;;;17.40;99.90;;;;;;5069135;28;20569;-78
2023/09/27 08:05:16;;;;;;;11.17;9.70;;;17.40;99.90;;;;;;5063224;28;21043;-78
2023/09/27 08:07:44;;;;;;;10.93;9.40;;;17.30;99.90;;;;;;5069157;28;20462;-78
2023/09/27 08:10:11;;;;;;;10.83;9.73;;;17.30;99.90;;;;;;5069023;28;20494;-79
2023/09/27 08:12:39;;;;;;;15.00;11.73;;;17.50;99.90;;;;;;5069041;28;20521;-78
2023/09/27 08:15:08;;;;;;;10.63;9.53;;;17.50;99.90;;;;;;5069632;28;20450;-80
2023/09/27 08:17:37;;;;;;;13.37;10.90;;;17.70;99.90;;;;;;5068734;28;20480;-79
2023/09/27 08:20:09;;;;;;;12.53;9.70;;;17.80;99.90;;;;;;5069698;28;20470;-79
2023/09/27 08:22:39;;;;;;;13.50;10.47;;;17.80;99.90;;;;;;5069015;28;20448;-80
2023/09/27 08:25:09;;;;;;;14.87;12.50;;;17.90;99.90;;;;;;5067706;28;20467;-78
2023/09/27 08:27:36;;;;;;;17.00;12.73;;;18.00;99.90;;;;;;5068713;28;20475;-78
2023/09/27 08:30:06;;;;;;;11.80;10.73;;;18.00;99.90;;;;;;5064883;28;20542;-79
2023/09/27 08:32:33;;;;;;;13.70;11.77;;;18.20;99.90;;;;;;5069197;28;21075;-79
2023/09/27 08:35:04;;;;;;;15.40;11.27;;;18.20;99.90;;;;;;5068567;28;20559;-80
2023/09/27 08:37:32;;;;;;;14.77;10.17;;;18.00;99.90;;;;;;5069892;28;20443;-80
2023/09/27 08:39:59;;;;;;;18.43;11.77;;;18.10;99.90;;;;;;5058246;28;20471;-79
2023/09/27 08:42:26;;;;;;;17.93;13.00;;;18.10;99.90;;;;;;5067791;28;20446;-79
2023/09/27 08:44:54;;;;;;;17.90;12.40;;;18.10;99.90;;;;;;5065125;28;20906;-79
2023/09/27 08:47:22;;;;;;;12.73;9.70;;;18.30;99.90;;;;;;5068513;28;20455;-78
2023/09/27 08:49:50;;;;;;;16.80;10.83;;;18.30;99.90;;;;;;5069178;28;20448;-79
2023/09/27 08:52:20;;;;;;;17.33;9.53;;;18.20;99.90;;;;;;5067789;28;20528;-80
2023/09/27 08:54:47;;;;;;;13.27;11.83;;;18.20;99.90;;;;;;5068206;28;20534;-79
2023/09/27 08:57:14;;;;;;;15.90;10.63;;;18.40;99.90;;;;;;5065488;28;20471;-79
2023/09/27 08:59:42;;;;;;;12.70;10.53;;;18.20;99.90;;;;;;5068815;28;20444;-80
2023/09/27 09:02:10;;;;;;;14.20;10.30;;;18.20;99.90;;;;;;5058518;28;20491;-79
2023/09/27 09:04:38;;;;;;;10.77;9.77;;;18.30;99.90;;;;;;5062504;28;20528;-79
2023/09/27 09:07:06;;;;;;;14.53;9.77;;;18.40;99.90;;;;;;5068435;28;20452;-80
2023/09/27 09:09:35;;;;;;;17.00;10.93;;;18.30;99.90;;;;;;5068722;28;20495;-80
2023/09/27 09:12:08;;;;;;;14.13;9.23;;;18.50;99.90;;;;;;5067303;28;21018;-80
2023/09/27 09:14:40;;;;;;;15.00;10.20;;;18.50;99.90;;;;;;5067881;28;20471;-79
2023/09/27 09:17:10;;;;;;;13.87;10.50;;;18.60;99.90;;;;;;5067632;28;20966;-79
2023/09/27 09:19:41;;;;;;;13.60;10.23;;;18.70;99.90;;;;;;5067150;28;20481;-80
2023/09/27 09:22:11;;;;;;;12.57;10.17;;;18.70;99.90;;;;;;5066262;28;20460;-79
2023/09/27 09:24:42;;;;;;;12.40;10.00;;;18.90;99.90;;;;;;5064914;28;20497;-79
2023/09/27 09:27:10;;;;;;;14.70;9.73;;;18.90;99.90;;;;;;5062677;28;20531;-79
2023/09/27 09:29:47;;;;;;;11.60;10.40;;;18.80;99.90;;;;;;5063512;28;20475;-81
2023/09/27 09:32:18;;;;;;;14.50;9.87;;;19.10;99.90;;;;;;5063916;28;20484;-79
2023/09/27 09:34:46;;;;;;;13.40;11.00;;;18.70;99.90;;;;;;5065751;28;20445;-82
2023/09/27 09:37:18;;;;;;;14.60;12.00;;;19.00;99.90;;;;;;5062317;28;20448;-79
2023/09/27 09:39:47;;;;;;;12.40;11.20;;;19.20;99.90;;;;;;5065290;28;20489;-79
2023/09/27 09:42:29;;;;;;;13.23;12.00;;;19.30;99.90;;;;;;5057106;28;20471;-79
2023/09/27 09:45:00;;;;;;;12.30;11.10;;;19.50;99.90;;;;;;5059382;28;21185;-79
2023/09/27 09:47:29;;;;;;;13.43;11.43;;;19.50;99.90;;;;;;5061251;28;20467;-78
2023/09/27 09:49:56;;;;;;;15.40;11.03;;;19.60;99.90;;;;;;5061679;28;20949;-80
2023/09/27 09:52:28;;;;;;;14.50;11.30;;;19.60;99.90;;;;;;5060621;28;21291;-80
2023/09/27 09:54:58;;;;;;;15.13;12.20;;;19.60;99.90;;;;;;5064843;28;20509;-81
2023/09/27 09:57:35;;;;;;;12.50;10.10;;;19.60;99.90;;;;;;5063281;28;20450;-78
2023/09/27 10:00:12;;;;;;;12.50;11.23;;;19.70;99.90;;;;;;5066453;28;20448;-80
2023/09/27 10:02:49;;;;;;;13.70;10.60;;;19.90;99.90;;;;;;5058298;28;20477;-79
2023/09/27 10:05:18;;;;;;;12.50;11.33;;;19.80;99.90;;;;;;5062715;28;20472;-79
2023/09/27 10:07:46;;;;;;;14.53;12.30;;;19.90;99.90;;;;;;5053215;28;20509;-78
2023/09/27 10:10:14;;;;;;;14.40;11.43;;;20.00;99.90;;;;;;5059154;28;20454;-79
2023/09/27 10:12:44;;;;;;;17.40;13.23;;;19.90;99.90;;;;;;5064098;28;20541;-79
2023/09/27 10:15:12;;;;;;;13.93;12.10;;;19.90;99.90;;;;;;5063503;28;20856;-81
2023/09/27 10:17:39;;;;;;;19.00;14.27;;;20.00;99.90;;;;;;5064109;28;20440;-82
2023/09/27 10:20:12;;;;;;;14.33;11.40;;;20.20;99.90;;;;;;5059399;28;20477;-80
2023/09/27 10:22:40;;;;;;;10.40;9.03;;;20.30;99.90;;;;;;5062323;28;20469;-79
2023/09/27 10:25:33;;;;;;;11.73;10.53;;;20.20;99.90;;;;;;5064737;28;20447;-79
2023/09/27 10:28:12;;;;;;;18.80;11.60;;;20.20;99.90;;;;;;5065188;28;20551;-80
2023/09/27 10:31:17;;;;;;;12.33;10.80;;;20.10;99.90;;;;;;5058269;28;20637;-80
2023/09/27 10:33:44;;;;;;;16.57;12.70;;;20.30;99.90;;;;;;5036863;28;20455;-79
2023/09/27 10:36:31;;;;;;;12.23;10.90;;;20.50;99.90;;;;;;5043955;28;20445;-79
2023/09/27 10:39:05;;;;;;;17.20;13.80;;;20.50;99.90;;;;;;5051240;28;21114;-79
2023/09/27 10:41:48;;;;;;;11.17;10.03;;;20.60;99.90;;;;;;5058640;28;20441;-80
2023/09/27 10:44:29;;;;;;;17.80;12.60;;;20.90;99.90;;;;;;5054826;28;20796;-79
2023/09/27 10:46:56;;;;;;;16.50;13.30;;;21.20;99.90;;;;;;5066982;28;21102;-80
2023/09/27 10:49:25;;;;;;;16.67;13.23;;;21.00;99.90;;;;;;5064325;28;20859;-78
2023/09/27 10:51:53;;;;;;;12.43;10.80;;;20.80;99.90;;;;;;5057688;28;20528;-79
2023/09/27 10:54:23;;;;;;;12.93;10.40;;;20.90;99.90;;;;;;5064155;28;20449;-81
2023/09/27 10:56:56;;;;;;;12.87;11.20;;;21.10;99.90;;;;;;5058198;28;20520;-81
2023/09/27 10:59:27;;;;;;;16.47;11.30;;;21.10;99.90;;;;;;5054595;28;20491;-79
2023/09/27 11:01:55;;;;;;;14.23;10.63;;;21.20;99.90;;;;;;5054440;28;20440;-83
2023/09/27 11:04:22;;;;;;;11.77;10.73;;;21.10;99.90;;;;;;5060695;28;21145;-79
2023/09/27 11:06:50;;;;;;;14.13;10.40;;;21.10;99.90;;;;;;5063422;28;20843;-79
2023/09/27 11:09:19;;;;;;;12.37;10.10;;;21.10;99.90;;;;;;5063684;28;20455;-79
2023/09/27 11:11:48;;;;;;;10.40;8.50;;;21.20;99.90;;;;;;5061577;28;20567;-80
2023/09/27 11:14:29;;;;;;;10.90;9.77;;;21.40;99.90;;;;;;5056617;28;20526;-83
2023/09/27 11:16:56;;;;;;;11.70;10.60;;;21.50;99.90;;;;;;5057139;28;20452;-80
2023/09/27 11:19:28;;;;;;;18.00;13.23;;;21.40;99.90;;;;;;5056062;28;20954;-79
2023/09/27 11:21:55;;;;;;;13.73;10.30;;;21.40;99.90;;;;;;5066712;28;20444;-79
2023/09/27 11:24:23;;;;;;;17.13;12.30;;;21.30;99.90;;;;;;5066091;28;20486;-79
2023/09/27 11:26:50;;;;;;;11.07;10.07;;;21.30;99.90;;;;;;5064880;28;20470;-79
2023/09/27 11:29:25;;;;;;;13.17;11.30;;;21.30;99.90;;;;;;5066386;28;20534;-79
2023/09/27 11:31:57;;;;;;;11.00;9.40;;;21.30;99.90;;;;;;5065868;28;20489;-79
2023/09/27 11:34:24;;;;;;;11.90;10.00;;;21.40;99.90;;;;;;5061420;28;20514;-80
2023/09/27 11:36:52;;;;;;;10.83;9.07;;;21.40;99.90;;;;;;5064049;28;21002;-79
2023/09/27 11:39:20;;;;;;;10.53;9.47;;;21.40;99.90;;;;;;5061940;28;20984;-80
2023/09/27 11:41:47;;;;;;;10.17;9.17;;;21.40;99.90;;;;;;5052908;28;20448;-81
2023/09/27 11:44:20;;;;;;;9.67;8.30;;;21.30;99.90;;;;;;5050997;28;20542;-79
2023/09/27 11:46:49;;;;;;;14.00;8.83;;;21.20;99.60;;;;;;5048737;28;20469;-80
2023/09/27 11:49:17;;;;;;;10.00;8.80;;;21.50;99.10;;;;;;5065591;28;20855;-78
2023/09/27 11:51:44;;;;;;;10.10;8.90;;;21.70;98.20;;;;;;5054399;28;20939;-80
2023/09/27 11:54:12;;;;;;;9.40;8.30;;;21.70;97.40;;;;;;5055328;28;20448;-77
2023/09/27 11:56:40;;;;;;;14.90;9.20;;;21.60;99.90;;;;;;5052565;28;20451;-80
2023/09/27 11:59:07;;;;;;;10.87;9.87;;;21.70;99.90;;;;;;5059903;28;20479;-81
2023/09/27 12:01:36;;;;;;;11.43;10.30;;;21.90;99.90;;;;;;5053352;28;20457;-79
2023/09/27 12:04:03;;;;;;;10.50;9.60;;;22.10;99.90;;;;;;5058655;28;20519;-81
2023/09/27 12:06:31;;;;;;;11.63;9.43;;;22.40;99.50;;;;;;5057776;28;20501;-83
2023/09/27 12:08:58;;;;;;;9.97;8.97;;;22.30;98.80;;;;;;5060577;28;20475;-81
2023/09/27 12:11:26;;;;;;;12.30;9.53;;;22.40;98.30;;;;;;5063405;28;20467;-79
2023/09/27 12:13:53;;;;;;;18.20;9.00;;;22.50;97.90;;;;;;5064598;28;20463;-80
2023/09/27 12:16:21;;;;;;;9.07;8.17;;;22.50;97.90;;;;;;5065346;28;21286;-79
2023/09/27 12:18:49;;;;;;;8.93;7.40;;;22.50;98.50;;;;;;5069702;28;20522;-79
2023/09/27 12:21:16;;;;;;;8.87;7.57;;;22.70;97.90;;;;;;5068959;28;20464;-79
2023/09/27 12:23:45;;;;;;;14.80;10.27;;;22.90;98.30;;;;;;5068425;28;20517;-79
2023/09/27 12:26:12;;;;;;;15.27;9.50;;;22.80;96.40;;;;;;5065579;28;20501;-78
2023/09/27 12:28:41;;;;;;;9.90;8.57;;;22.90;97.00;;;;;;5068912;28;21165;-79
2023/09/27 12:31:08;;;;;;;15.00;9.23;;;22.90;96.70;;;;;;5062782;28;20471;-79
2023/09/27 12:33:36;;;;;;;11.33;10.27;;;23.00;96.40;;;;;;5067220;28;20569;-79
2023/09/27 12:36:05;;;;;;;9.13;7.67;;;23.00;95.20;;;;;;5067891;28;20448;-79
2023/09/27 12:38:32;;;;;;;9.93;7.67;;;23.20;92.50;;;;;;5067395;28;20452;-78
2023/09/27 12:41:01;;;;;;;10.40;8.40;;;22.90;91.70;;;;;;5054552;28;20950;-79
2023/09/27 12:43:28;;;;;;;7.87;7.17;;;22.70;92.30;;;;;;5067311;28;20496;-80
2023/09/27 12:45:55;;;;;;;9.70;8.00;;;22.90;91.10;;;;;;5068520;28;20582;-80